KNQI/NQI METAR and TAF weather

Enter ICAO airport designator
Station Type Date Time Source
KNQI METAR 2021/03/05 12:56 UTC NOAA

KNQI 051256Z 06004KT 5SM BR SCT011 OVC022 19/17 A2995 RMK AO2 SLP138 T01890167 $


Station Type Date Time Source
KNQI Decoded METAR 2021/03/05 12:56 UTC NOAA

KINGSVILLE NAS, TX, United States (KNQI) 27-50N 097-81W 15M
Mar 05, 2021 - 07:56 AM EST / 2021.03.05 1256 UTC
Wind: from the ENE (060 degrees) at 5 MPH (4 KT):0
Visibility: 5 mile(s):0
Sky conditions: overcast
Weather: mist
Temperature: 66.0 F (18.9 C)
Dew Point: 62.1 F (16.7 C)
Relative Humidity: 87%
Pressure (altimeter): 29.95 in. Hg (1014 hPa)
ob: KNQI 051256Z 06004KT 5SM BR SCT011 OVC022 19/17 A2995 RMK AO2 SLP138 T01890167
cycle: 13

Station Type Date Time Source
KNQI TAF 2021/03/05 09:09 UTC NOAA

TAF TAF
AMD KNQI 0509/0607 15012KT 9999 FEW020 OVC030 QNH2982INS
TEMPO 0509/0511 8000 BR BKN010
FM051200 VRB06KT 3200 BR BKN005 OVC015 QNH2988INS
TEMPO 0510/0516 0800 FG VV002
BECMG 0516/0518 VRB06KT 9999 NSW BKN015 OVC030 QNH2986INS
BECMG 0519/0521 VRB06KT 9999 FEW050 FEW170 QNH2985INS
BECMG 0603/0605 VRB06KT 9999 BKN005 QNH3000INS AUTOMATED SENSOR METWATCH 0509 TIL 0512 T15/0512Z T25/0521Z
AMD 0910 FN00204

Example: see airport list